createdAt,value
2022-09-03T00:02:23.803Z,1.67
2022-09-03T00:05:27.014Z,1.48
2022-09-03T00:08:23.476Z,1.95
2022-09-03T00:11:22.073Z,1.50
2022-09-03T00:14:15.558Z,1.80
2022-09-03T00:17:08.182Z,1.98
2022-09-03T00:19:59.980Z,1.95
2022-09-03T00:22:49.268Z,1.42
2022-09-03T00:25:43.121Z,1.48
2022-09-03T00:29:01.091Z,1.23
2022-09-03T00:31:51.706Z,1.30
2022-09-03T00:34:41.442Z,1.55
2022-09-03T00:37:29.505Z,1.10
2022-09-03T00:40:35.751Z,1.75
2022-09-03T00:43:31.570Z,2.05
2022-09-03T00:46:19.987Z,1.60
2022-09-03T00:49:30.073Z,1.70
2022-09-03T00:52:35.137Z,1.40
2022-09-03T00:55:29.110Z,1.65
2022-09-03T00:58:30.325Z,1.60
2022-09-03T01:01:18.437Z,1.48
2022-09-03T01:04:28.043Z,1.52
2022-09-03T01:07:31.200Z,1.30
2022-09-03T01:10:42.095Z,1.95
2022-09-03T01:13:41.530Z,1.92
2022-09-03T01:19:35.615Z,1.80
2022-09-03T01:22:39.434Z,1.70
2022-09-03T01:25:32.369Z,1.75
2022-09-03T01:28:27.217Z,1.88
2022-09-03T01:31:40.161Z,1.75
2022-09-03T01:34:41.208Z,1.65
2022-09-03T01:37:44.864Z,1.80
2022-09-03T01:40:50.958Z,1.60
2022-09-03T01:43:51.842Z,1.60
2022-09-03T01:46:46.043Z,2.13
2022-09-03T01:49:41.285Z,1.60
2022-09-03T01:52:51.710Z,1.45
2022-09-03T01:55:56.955Z,1.30
2022-09-03T01:58:45.643Z,1.30
2022-09-03T02:01:37.118Z,1.48
2022-09-03T02:04:25.555Z,1.10
2022-09-03T02:07:11.242Z,1.85
2022-09-03T02:09:56.645Z,1.38
2022-09-03T02:12:56.260Z,2.15
2022-09-03T02:15:46.476Z,1.40
2022-09-03T02:18:41.394Z,1.40
2022-09-03T02:21:33.097Z,1.10
2022-09-03T02:24:18.500Z,1.40
2022-09-03T02:27:04.448Z,1.23
2022-09-03T02:29:50.679Z,1.50
2022-09-03T02:32:36.078Z,1.20
2022-09-03T02:35:21.513Z,1.63
2022-09-03T02:38:11.991Z,1.50
2022-09-03T02:40:57.280Z,1.60
2022-09-03T02:43:50.041Z,1.50
2022-09-03T02:46:47.033Z,1.73
2022-09-03T02:49:35.040Z,1.50
2022-09-03T02:52:20.242Z,1.33
2022-09-03T02:55:05.979Z,1.40
2022-09-03T02:57:51.543Z,1.65
2022-09-03T03:00:37.272Z,2.50
2022-09-03T03:03:22.470Z,1.75
2022-09-03T03:06:08.565Z,1.40
2022-09-03T03:08:57.692Z,1.58
2022-09-03T03:11:43.218Z,1.55
2022-09-03T03:14:28.326Z,1.48
2022-09-03T03:17:13.831Z,1.25
2022-09-03T03:19:58.940Z,1.35
2022-09-03T03:22:44.009Z,2.15
2022-09-03T03:25:29.215Z,1.75
2022-09-03T03:28:15.225Z,1.75
2022-09-03T03:31:12.426Z,1.73
2022-09-03T03:34:00.441Z,1.52
2022-09-03T03:36:45.994Z,1.83
2022-09-03T03:39:31.846Z,1.85
2022-09-03T03:42:17.199Z,1.38
2022-09-03T03:45:02.964Z,1.65
2022-09-03T03:47:48.387Z,2.30
2022-09-03T03:50:33.829Z,1.67
2022-09-03T03:53:19.480Z,1.95
2022-09-03T03:56:07.828Z,1.73
2022-09-03T03:58:54.484Z,1.63
2022-09-03T04:01:39.834Z,1.85
2022-09-03T04:04:25.278Z,2.03
2022-09-03T04:07:10.542Z,1.92
2022-09-03T04:09:55.720Z,1.60
2022-09-03T04:12:41.257Z,1.50
2022-09-03T04:15:26.442Z,2.10
2022-09-03T04:18:12.020Z,2.00
2022-09-03T04:21:25.432Z,2.00
2022-09-03T04:24:13.768Z,1.80
2022-09-03T04:26:59.040Z,2.10
2022-09-03T04:29:44.335Z,1.88
2022-09-03T04:32:48.443Z,2.50
2022-09-03T04:35:38.140Z,1.63
2022-09-03T04:38:24.314Z,1.75
2022-09-03T04:41:12.876Z,1.90
2022-09-03T04:43:59.556Z,2.42
2022-09-03T04:46:47.685Z,1.70
2022-09-03T04:49:33.016Z,2.20
2022-09-03T04:52:18.138Z,2.03
2022-09-03T04:55:03.391Z,1.85
2022-09-03T04:57:48.727Z,2.10
2022-09-03T05:00:34.071Z,4.95
2022-09-03T05:03:20.736Z,2.47
2022-09-03T05:06:06.327Z,2.03
2022-09-03T05:08:54.369Z,2.47
2022-09-03T05:11:40.185Z,2.15
2022-09-03T05:14:25.348Z,2.45
2022-09-03T05:17:10.706Z,2.15
2022-09-03T05:19:56.044Z,2.17
2022-09-03T05:22:41.241Z,2.20
2022-09-03T05:25:27.078Z,2.30
2022-09-03T05:28:13.274Z,2.17
2022-09-03T05:31:06.676Z,2.20
2022-09-03T05:33:54.926Z,2.70
2022-09-03T05:36:40.645Z,4.32
2022-09-03T05:39:26.303Z,2.75
2022-09-03T05:42:13.054Z,2.03
2022-09-03T05:44:58.567Z,2.10
2022-09-03T05:47:43.722Z,2.58
2022-09-03T05:50:28.927Z,2.17
2022-09-03T05:53:14.414Z,2.10
2022-09-03T05:56:01.105Z,2.42
2022-09-03T05:58:51.094Z,2.47
2022-09-03T06:01:43.218Z,2.70
2022-09-03T06:04:35.931Z,2.25
2022-09-03T06:07:21.427Z,2.30
2022-09-03T06:10:07.841Z,2.22
2022-09-03T06:12:53.229Z,2.45
2022-09-03T06:15:39.107Z,1.92
2022-09-03T06:18:28.311Z,2.13
2022-09-03T06:21:15.063Z,2.25
2022-09-03T06:24:00.664Z,2.15
2022-09-03T06:26:46.705Z,2.03
2022-09-03T06:29:32.188Z,1.90
2022-09-03T06:32:17.447Z,2.22
2022-09-03T06:35:02.324Z,2.03
2022-09-03T06:37:47.659Z,2.35
2022-09-03T06:40:33.138Z,2.20
2022-09-03T06:43:18.593Z,2.10
2022-09-03T06:46:10.355Z,2.00
2022-09-03T06:48:55.714Z,2.20
2022-09-03T06:51:41.116Z,1.95
2022-09-03T06:54:26.470Z,1.85
2022-09-03T06:57:11.777Z,2.33
2022-09-03T06:59:57.106Z,2.10
2022-09-03T07:02:44.953Z,2.10
2022-09-03T07:05:30.962Z,2.72
2022-09-03T07:08:16.161Z,2.17
2022-09-03T07:11:09.227Z,1.67
2022-09-03T07:13:56.076Z,1.92
2022-09-03T07:16:43.111Z,2.47
2022-09-03T07:19:28.891Z,2.25
2022-09-03T07:22:14.608Z,3.25
2022-09-03T07:25:00.404Z,2.03
2022-09-03T07:27:47.934Z,2.70
2022-09-03T07:30:33.453Z,1.67
2022-09-03T07:33:19.919Z,2.08
2022-09-03T07:36:08.538Z,1.80
2022-09-03T07:38:58.625Z,2.05
2022-09-03T07:41:45.824Z,2.38
2022-09-03T07:44:31.311Z,1.98
2022-09-03T07:47:21.599Z,2.00
2022-09-03T07:50:12.555Z,1.80
2022-09-03T07:53:01.203Z,1.92
2022-09-03T07:55:48.016Z,2.13
2022-09-03T07:58:35.065Z,1.88
2022-09-03T08:01:21.683Z,2.00
2022-09-03T08:04:09.523Z,2.17
2022-09-03T08:06:56.787Z,1.75
2022-09-03T08:09:45.042Z,2.05
2022-09-03T08:12:32.667Z,2.78
2022-09-03T08:15:18.091Z,2.60
2022-09-03T08:18:05.919Z,3.10
2022-09-03T08:20:51.250Z,2.47
2022-09-03T08:23:38.436Z,2.38
2022-09-03T08:26:23.894Z,1.90
2022-09-03T08:29:09.431Z,1.60
2022-09-03T08:31:54.820Z,2.50
2022-09-03T08:34:40.485Z,2.10
2022-09-03T08:37:28.985Z,1.80
2022-09-03T08:40:14.797Z,2.05
2022-09-03T08:43:18.910Z,1.60
2022-09-03T08:46:04.216Z,2.05
2022-09-03T08:48:49.876Z,1.50
2022-09-03T08:51:37.768Z,2.00
2022-09-03T08:54:26.995Z,1.83
2022-09-03T08:57:19.605Z,1.48
2022-09-03T09:00:06.250Z,1.70
2022-09-03T09:02:57.465Z,1.65
2022-09-03T09:05:47.960Z,1.85
2022-09-03T09:08:45.302Z,2.20
2022-09-03T09:11:53.497Z,1.77
2022-09-03T09:15:05.908Z,1.88
2022-09-03T09:18:12.862Z,1.73
2022-09-03T09:21:20.990Z,1.98
2022-09-03T09:24:19.380Z,1.50
2022-09-03T09:27:15.377Z,1.50
2022-09-03T09:30:04.942Z,2.00
2022-09-03T09:32:51.491Z,2.17
2022-09-03T09:35:36.910Z,1.50
2022-09-03T09:38:48.769Z,1.92
2022-09-03T09:41:34.035Z,1.55
2022-09-03T09:44:21.048Z,1.70
2022-09-03T09:47:11.898Z,1.65
2022-09-03T09:50:05.436Z,1.70
2022-09-03T09:53:08.683Z,1.60
2022-09-03T09:55:58.758Z,1.70
2022-09-03T09:58:47.551Z,1.50
2022-09-03T10:01:33.848Z,0.87
2022-09-03T10:04:24.401Z,1.42
2022-09-03T10:07:24.143Z,1.38
2022-09-03T10:10:21.031Z,1.30
2022-09-03T10:13:12.739Z,1.80
2022-09-03T10:16:03.364Z,1.38
2022-09-03T10:19:12.296Z,1.30
2022-09-03T10:22:26.390Z,1.70
2022-09-03T10:25:19.657Z,1.40
2022-09-03T10:28:08.591Z,1.55
2022-09-03T10:33:59.356Z,1.30
2022-09-03T10:37:00.669Z,1.50
2022-09-03T10:39:55.127Z,1.50
2022-09-03T10:42:51.523Z,1.42
2022-09-03T10:45:59.271Z,1.50
2022-09-03T10:48:58.651Z,1.55
2022-09-03T10:52:10.356Z,1.48
2022-09-03T10:55:15.302Z,1.60
2022-09-03T10:58:23.561Z,1.40
2022-09-03T11:01:23.498Z,1.33
2022-09-03T11:04:20.551Z,0.90
2022-09-03T11:07:12.349Z,1.40
2022-09-03T11:10:15.941Z,1.40
2022-09-03T11:13:08.616Z,1.48
2022-09-03T11:16:06.738Z,1.73
2022-09-03T11:19:02.283Z,1.20
2022-09-03T11:21:48.878Z,1.20
2022-09-03T11:24:39.902Z,1.40
2022-09-03T11:27:34.025Z,1.40
2022-09-03T11:30:40.386Z,1.38
2022-09-03T11:33:27.289Z,1.63
2022-09-03T11:36:12.791Z,1.20
2022-09-03T11:39:00.880Z,1.08
2022-09-03T11:41:57.949Z,1.55
2022-09-03T11:44:51.615Z,1.63
2022-09-03T11:47:41.962Z,1.55
2022-09-03T11:50:30.296Z,1.60
2022-09-03T11:53:16.316Z,1.48
2022-09-03T11:56:18.094Z,1.70
2022-09-03T11:59:13.781Z,1.60
2022-09-03T12:02:27.462Z,1.58
2022-09-03T12:05:42.612Z,1.45
2022-09-03T12:09:02.605Z,1.20
2022-09-03T12:12:29.923Z,1.52
2022-09-03T12:15:27.531Z,1.40
2022-09-03T12:18:22.609Z,1.40
2022-09-03T12:21:10.617Z,1.33
2022-09-03T12:23:58.287Z,1.33
2022-09-03T12:26:44.085Z,1.27
2022-09-03T12:29:31.326Z,1.50
2022-09-03T12:32:18.552Z,1.10
2022-09-03T12:35:58.402Z,1.40
2022-09-03T12:38:25.860Z,1.65
2022-09-03T12:41:29.273Z,1.38
2022-09-03T12:44:14.601Z,3.22
2022-09-03T12:50:23.599Z,2.10
2022-09-03T12:53:12.305Z,1.58
2022-09-03T12:56:01.975Z,1.50
2022-09-03T13:01:51.223Z,1.70
2022-09-03T13:04:37.513Z,1.92
2022-09-03T13:07:36.380Z,2.20
2022-09-03T13:10:31.332Z,2.78
2022-09-03T13:13:25.329Z,1.52
2022-09-03T13:16:29.222Z,1.52
2022-09-03T13:19:19.071Z,1.42
2022-09-03T13:22:39.136Z,1.50
2022-09-03T13:25:29.911Z,1.67
2022-09-03T13:28:39.903Z,1.42
2022-09-03T13:31:33.505Z,2.03
2022-09-03T13:34:35.983Z,2.17
2022-09-03T13:37:39.796Z,2.15
2022-09-03T13:40:31.374Z,1.40
2022-09-03T13:43:26.733Z,1.77
2022-09-03T13:46:35.946Z,2.03
2022-09-03T13:50:01.411Z,2.00
2022-09-03T13:52:59.201Z,1.77
2022-09-03T13:55:52.815Z,2.05
2022-09-03T13:59:04.136Z,1.73
2022-09-03T14:02:05.933Z,1.70
2022-09-03T14:04:57.630Z,1.60
2022-09-03T14:07:58.193Z,1.75
2022-09-03T14:11:04.207Z,1.63
2022-09-03T14:14:05.047Z,1.70
2022-09-03T14:16:57.986Z,1.92
2022-09-03T14:20:02.422Z,1.85
2022-09-03T14:23:18.807Z,1.80
2022-09-03T14:26:07.587Z,2.28
2022-09-03T14:29:09.049Z,1.92
2022-09-03T14:32:23.846Z,2.35
2022-09-03T14:35:34.193Z,1.70
2022-09-03T14:38:50.778Z,2.13
2022-09-03T14:41:37.257Z,2.53
2022-09-03T14:44:45.613Z,1.92
2022-09-03T14:48:01.123Z,1.85
2022-09-03T14:51:08.268Z,1.80
2022-09-03T14:57:09.553Z,1.98
2022-09-03T15:00:43.337Z,1.65
2022-09-03T15:03:50.647Z,1.50
2022-09-03T15:06:45.351Z,2.25
2022-09-03T15:09:52.319Z,1.98
2022-09-03T15:12:43.234Z,1.83
2022-09-03T15:16:01.618Z,2.17
2022-09-03T15:19:01.761Z,2.58
2022-09-03T15:22:11.373Z,2.05
2022-09-03T15:25:27.894Z,2.10
2022-09-03T15:28:34.495Z,1.92
2022-09-03T15:32:05.028Z,1.80
2022-09-03T15:34:59.345Z,1.80
2022-09-03T15:38:10.857Z,2.13
2022-09-03T15:41:01.093Z,1.60
2022-09-03T15:43:50.936Z,2.13
2022-09-03T15:46:53.656Z,2.15
2022-09-03T15:49:47.264Z,2.00
2022-09-03T15:53:19.248Z,1.83
2022-09-03T15:56:45.421Z,1.90
2022-09-03T15:59:41.041Z,1.90
2022-09-03T16:02:39.925Z,2.05
2022-09-03T16:08:43.627Z,2.67
2022-09-03T16:11:45.127Z,4.18
2022-09-03T16:14:38.184Z,2.35
2022-09-03T16:17:33.881Z,2.17
2022-09-03T16:20:22.823Z,2.53
2022-09-03T16:23:19.642Z,2.53
2022-09-03T16:26:09.075Z,2.05
2022-09-03T16:29:02.941Z,1.95
2022-09-03T16:32:23.813Z,2.65
2022-09-03T16:35:29.533Z,2.10
2022-09-03T16:38:31.147Z,2.10
2022-09-03T16:41:41.661Z,2.05
2022-09-03T16:44:51.780Z,2.60
2022-09-03T16:47:37.171Z,2.85
2022-09-03T16:50:41.367Z,2.55
2022-09-03T16:54:03.146Z,2.55
2022-09-03T16:57:02.095Z,2.42
2022-09-03T16:59:59.349Z,2.17
2022-09-03T17:03:26.056Z,2.78
2022-09-03T17:06:21.169Z,3.28
2022-09-03T17:09:28.334Z,2.67
2022-09-03T17:12:39.531Z,2.55
2022-09-03T17:15:33.770Z,3.65
2022-09-03T17:18:38.957Z,3.30
2022-09-03T17:21:33.667Z,2.15
2022-09-03T17:24:35.941Z,2.42
2022-09-03T17:27:44.735Z,3.30
2022-09-03T17:30:43.871Z,2.53
2022-09-03T17:33:48.750Z,3.00
2022-09-03T17:36:38.387Z,2.45
2022-09-03T17:39:32.691Z,3.50
2022-09-03T17:42:33.481Z,3.05
2022-09-03T17:45:36.436Z,3.50
2022-09-03T17:48:44.358Z,3.55
2022-09-03T17:52:02.024Z,3.30
2022-09-03T17:54:52.723Z,3.95
2022-09-03T17:57:48.140Z,4.07
2022-09-03T18:00:45.720Z,3.83
2022-09-03T18:03:41.125Z,4.20
2022-09-03T18:06:41.267Z,5.10
2022-09-03T18:09:39.946Z,4.40
2022-09-03T18:13:03.177Z,4.13
2022-09-03T18:15:58.723Z,3.78
2022-09-03T18:18:47.828Z,3.60
2022-09-03T18:21:57.359Z,3.78
2022-09-03T18:25:12.774Z,4.22
2022-09-03T18:28:23.317Z,2.70
2022-09-03T18:31:35.144Z,3.60
2022-09-03T18:34:44.737Z,3.50
2022-09-03T18:41:03.960Z,3.45
2022-09-03T18:44:48.226Z,3.05
2022-09-03T18:48:18.092Z,3.00
2022-09-03T18:51:39.522Z,3.53
2022-09-03T18:55:18.200Z,3.38
2022-09-03T18:58:22.515Z,3.00
2022-09-03T19:01:44.618Z,3.67
2022-09-03T19:05:02.974Z,3.30
2022-09-03T19:08:39.964Z,3.90
2022-09-03T19:12:23.026Z,3.60
2022-09-03T19:15:53.332Z,3.97
2022-09-03T19:19:28.706Z,3.63
2022-09-03T19:22:50.083Z,3.65
2022-09-03T19:25:54.886Z,3.17
2022-09-03T19:29:11.869Z,3.90
2022-09-03T19:32:23.224Z,3.20
2022-09-03T19:35:47.446Z,4.30
2022-09-03T19:39:08.438Z,4.50
2022-09-03T19:42:38.599Z,4.18
2022-09-03T19:49:21.445Z,5.28
2022-09-03T19:52:38.418Z,5.07
2022-09-03T19:55:48.906Z,4.32
2022-09-03T19:58:56.964Z,4.30
2022-09-03T20:02:02.430Z,3.83
2022-09-03T20:05:18.402Z,4.07
2022-09-03T20:08:23.168Z,3.72
2022-09-03T20:11:17.434Z,3.78
2022-09-03T20:14:14.561Z,3.58
2022-09-03T20:17:18.551Z,3.88
2022-09-03T20:20:18.808Z,5.13
2022-09-03T20:23:27.747Z,5.82
2022-09-03T20:26:31.464Z,3.95
2022-09-03T20:29:29.356Z,4.20
2022-09-03T20:32:52.339Z,4.05
2022-09-03T20:36:00.435Z,3.47
2022-09-03T20:39:10.978Z,2.90
2022-09-03T20:42:29.581Z,3.63
2022-09-03T20:45:31.884Z,2.88
2022-09-03T20:49:03.580Z,3.20
2022-09-03T20:51:58.915Z,3.50
2022-09-03T20:54:48.889Z,3.70
2022-09-03T20:57:48.974Z,3.80
2022-09-03T21:00:50.899Z,3.55
2022-09-03T21:04:02.381Z,3.38
2022-09-03T21:06:59.680Z,3.20
2022-09-03T21:10:07.314Z,3.17
2022-09-03T21:13:11.726Z,2.92
2022-09-03T21:16:26.390Z,3.45
2022-09-03T21:19:26.943Z,3.05
2022-09-03T21:22:39.973Z,2.80
2022-09-03T21:25:31.830Z,2.60
2022-09-03T21:28:30.476Z,2.88
2022-09-03T21:31:22.361Z,3.10
2022-09-03T21:34:30.443Z,2.80
2022-09-03T21:37:18.520Z,2.88
2022-09-03T21:40:08.014Z,2.60
2022-09-03T21:43:04.358Z,2.75
2022-09-03T21:46:12.991Z,2.63
2022-09-03T21:49:06.331Z,2.80
2022-09-03T21:51:59.736Z,2.33
2022-09-03T21:54:45.281Z,2.55
2022-09-03T21:58:15.410Z,2.70
2022-09-03T22:01:08.450Z,2.83
2022-09-03T22:03:54.389Z,2.72
2022-09-03T22:07:03.798Z,2.47
2022-09-03T22:10:20.348Z,2.95
2022-09-03T22:13:35.098Z,2.20
2022-09-03T22:16:51.846Z,2.05
2022-09-03T22:19:38.860Z,2.70
2022-09-03T22:22:33.607Z,2.72
2022-09-03T22:25:43.819Z,2.33
2022-09-03T22:28:47.543Z,2.97
2022-09-03T22:31:51.429Z,2.50
2022-09-03T22:35:05.395Z,2.30
2022-09-03T22:38:25.325Z,2.38
2022-09-03T22:41:30.336Z,2.17
2022-09-03T22:44:43.509Z,2.20
2022-09-03T22:47:42.842Z,2.63
2022-09-03T22:50:51.667Z,1.88
2022-09-03T22:53:49.346Z,3.60
2022-09-03T22:56:38.064Z,2.20
2022-09-03T22:59:28.615Z,2.40
2022-09-03T23:02:20.704Z,2.72
2022-09-03T23:05:10.532Z,2.25
2022-09-03T23:08:03.628Z,2.08
2022-09-03T23:11:28.145Z,2.00
2022-09-03T23:14:19.774Z,2.42
2022-09-03T23:17:14.863Z,2.15
2022-09-03T23:23:19.926Z,1.75
2022-09-03T23:26:13.343Z,2.00
2022-09-03T23:29:34.623Z,2.00
2022-09-03T23:32:20.303Z,2.17
2022-09-03T23:35:19.457Z,1.75
2022-09-03T23:38:14.332Z,2.10
2022-09-03T23:41:06.261Z,1.90
2022-09-03T23:44:13.279Z,2.65
2022-09-03T23:47:14.053Z,2.10
2022-09-03T23:50:06.602Z,2.33
2022-09-03T23:53:16.152Z,2.20
2022-09-03T23:56:08.507Z,2.30
2022-09-03T23:59:29.901Z,2.13
